Ada, MI (49301)

2:59 PM EST on December 07, 2016 (GMT -0500)
Timber Canyon | | Change Station
Active Advisory: Winter Weather Advisory

Elev 755 ft 42.93 °N, 85.48 °W | Updated 469 days ago

Cloudy
Cloudy
32 °F
Feels Like 21 °F
N
16
Wind Variable Wind from WSW
Gusts 21 mph

Today
High -- | Low -- °F
--% Chance of Precip.
Yesterday
High -- | Low -- °F
Precip. -- in
Pressure 30.01 in
Visibility 10.0 miles
Clouds Mostly Cloudy 2500 ft
Windchill 21 °F
Dew Point 23 °F
Humidity 67%
Rainfall in
Snow Depth Not available.
7:59 AM 5:07 PM
First Quarter, 55% visible
METAR KGRR 071953Z 25019KT 10SM BKN025 01/M05 A2999 RMK AO2 PK WND 23026/1930 SLP162 T00111050
Pressure 30.01 in
Visibility 10.0 miles
Clouds Mostly Cloudy 2500 ft
Windchill 21 °F
Dew Point 23 °F
Humidity 67%
Rainfall in
Snow Depth Not available.
7:59 AM 5:07 PM
First Quarter, 55% visible
METAR KGRR 071953Z 25019KT 10SM BKN025 01/M05 A2999 RMK AO2 PK WND 23026/1930 SLP162 T00111050

10-Day Weather Forecast

Almanac

Astronomy

Dec. 07, 2016 Rise Set
Actual Time
Civil Twilight
Nautical Twilight
Astronomical Twilight
Moon
Length of Visible Light
Length of Day
Tomorrow will be .
, % of the Moon is Illuminated

Today's Extremes

State Highs State Lows

Community

WunderPhotos

Upload Photos

1,956,164 photos uploaded!

WunderBlog® & News

Nearby

Air Quality

  Air Quality AQ Index Pollutant
Not available.

Snow Depth

Station Depth Elevation

Earthquake Activity

City Distance Mag. Time & Date
Minimum magnitude displayed is 2.5.

Coastal Water Temperatures

Place Temperature

Stations

Nearby Weather Stations

Station Location Temp. Windchill Dew Point Humidity Wind Precip. Elev Updated Type
                   

Watches & Warnings

Winter Weather Advisory
Issued: 11:47 AM EST Dec. 7, 2016 – National Weather Service

... Winter Weather Advisory remains in effect from midnight
tonight to 4 PM EST Friday...

Hazardous weather...

* snow showers will increase in coverage and intensity toward
   daybreak Thursday.

* Snowfall totals of 2 to 6 inches are possible by Friday
   evening. The heaviest snow will occur in the southwest corner
   of the County.

* Gusty west to northwest winds to 30 mph will produce blowing
   and drifting snow.

* The heavy lake effect snow bands will cause abrupt changes in
   visibility with near whiteout conditions possible.

Impacts...

* roads will become snow covered and slippery Thursday morning.

* Commute times to destinations will become longer than normal.

* Visibilities could drop to near zero at times under the
   heavier bands and in blowing and drifting snow.

Precautionary/preparedness actions...

* the Michigan Department of Transportation reminds motorists
   to adjust speeds based on the conditions... and to take it
   slow in ice and snow.

* Weather preparedness information is available on line at
   www.Ready.Gov/winter.